createdAt,value
2017-12-16T00:01:12.467Z,91.90
2017-12-16T00:03:40.221Z,92.10
2017-12-16T00:06:07.750Z,92.30
2017-12-16T00:08:35.384Z,92.40
2017-12-16T00:11:05.329Z,92.60
2017-12-16T00:13:32.952Z,92.40
2017-12-16T00:16:03.019Z,92.40
2017-12-16T00:18:30.578Z,92.40
2017-12-16T00:20:59.276Z,92.30
2017-12-16T00:23:26.954Z,92.20
2017-12-16T00:25:54.548Z,92.10
2017-12-16T00:28:22.196Z,92.10
2017-12-16T00:30:50.190Z,92.10
2017-12-16T00:33:17.690Z,92.30
2017-12-16T00:35:45.991Z,91.90
2017-12-16T00:38:13.473Z,91.90
2017-12-16T00:40:40.959Z,92.00
2017-12-16T00:43:08.719Z,91.90
2017-12-16T00:45:36.250Z,91.80
2017-12-16T00:48:03.750Z,91.70
2017-12-16T00:50:31.218Z,91.80
2017-12-16T00:52:59.444Z,92.20
2017-12-16T00:55:27.056Z,92.10
2017-12-16T00:57:54.696Z,92.30
2017-12-16T01:00:25.966Z,93.00
2017-12-16T01:02:53.518Z,92.90
2017-12-16T01:05:22.172Z,93.30
2017-12-16T01:07:49.678Z,93.30
2017-12-16T01:10:17.211Z,93.70
2017-12-16T01:12:45.742Z,93.90
2017-12-16T01:15:13.285Z,93.80
2017-12-16T01:17:40.904Z,94.00
2017-12-16T01:20:08.395Z,94.10
2017-12-16T01:22:35.896Z,94.40
2017-12-16T01:25:03.475Z,94.50
2017-12-16T01:27:31.043Z,94.50
2017-12-16T01:29:58.658Z,94.60
2017-12-16T01:32:26.452Z,94.50
2017-12-16T01:35:05.878Z,94.40
2017-12-16T01:37:45.244Z,94.30
2017-12-16T01:40:13.612Z,94.30
2017-12-16T01:42:41.260Z,94.20
2017-12-16T01:45:08.860Z,94.30
2017-12-16T01:47:36.402Z,94.30
2017-12-16T01:50:03.981Z,94.30
2017-12-16T01:52:31.620Z,94.30
2017-12-16T01:55:00.045Z,94.10
2017-12-16T01:57:30.195Z,94.00
2017-12-16T02:00:01.075Z,94.20
2017-12-16T02:02:28.584Z,94.00
2017-12-16T02:07:47.510Z,93.70
2017-12-16T02:10:16.183Z,93.90
2017-12-16T02:13:03.456Z,93.80
2017-12-16T02:15:31.109Z,93.90
2017-12-16T02:21:33.538Z,94.00
2017-12-16T02:24:16.521Z,94.20
2017-12-16T02:29:46.904Z,94.50
2017-12-16T03:26:52.589Z,94.40
2017-12-16T03:29:29.591Z,95.30
2017-12-16T03:31:57.929Z,95.20
2017-12-16T03:46:34.077Z,94.80
2017-12-16T03:55:04.519Z,94.70
2017-12-16T04:00:42.542Z,94.70
2017-12-16T04:08:57.582Z,94.40
2017-12-16T04:14:21.814Z,94.40
2017-12-16T04:19:55.187Z,94.40
2017-12-16T04:27:10.601Z,94.40
2017-12-16T04:36:24.622Z,94.60
2017-12-16T04:38:53.679Z,94.50
2017-12-16T04:41:22.934Z,94.40
2017-12-16T04:43:56.703Z,94.40
2017-12-16T04:46:27.961Z,94.50
2017-12-16T05:06:18.108Z,94.60
2017-12-16T05:08:47.675Z,94.60
2017-12-16T05:11:24.576Z,94.40
2017-12-16T05:14:02.780Z,94.30
2017-12-16T05:16:41.709Z,94.50
2017-12-16T06:51:08.638Z,95.60
2017-12-16T06:53:43.167Z,95.70
2017-12-16T06:56:10.700Z,95.70
2017-12-16T06:58:38.163Z,95.70
2017-12-16T07:01:05.620Z,96.00
2017-12-16T07:03:33.865Z,96.20
2017-12-16T07:06:01.351Z,96.20
2017-12-16T07:08:28.826Z,96.00
2017-12-16T07:10:57.078Z,95.20
2017-12-16T07:13:25.363Z,95.10
2017-12-16T07:15:53.635Z,95.60
2017-12-16T07:18:21.270Z,95.60
2017-12-16T07:20:48.751Z,95.60
2017-12-16T07:23:16.232Z,96.00
2017-12-16T07:25:44.498Z,96.30
2017-12-16T07:28:13.260Z,96.40
2017-12-16T07:30:41.904Z,96.30
2017-12-16T07:33:09.403Z,96.60
2017-12-16T07:35:39.406Z,96.70
2017-12-16T07:38:06.937Z,96.70
2017-12-16T07:40:34.464Z,96.80
2017-12-16T07:43:02.545Z,96.90
2017-12-16T07:45:30.089Z,97.00
2017-12-16T07:47:59.255Z,97.00
2017-12-16T07:50:26.745Z,97.00
2017-12-16T07:52:54.988Z,97.20
2017-12-16T07:55:22.575Z,97.20
2017-12-16T07:57:52.947Z,97.30
2017-12-16T08:00:20.442Z,97.30
2017-12-16T08:02:47.908Z,97.10
2017-12-16T08:05:15.358Z,97.20
2017-12-16T08:07:42.875Z,97.30
2017-12-16T08:10:12.943Z,97.50
2017-12-16T08:12:40.395Z,97.50
2017-12-16T08:15:08.012Z,97.70
2017-12-16T08:17:35.523Z,97.50
2017-12-16T08:20:02.977Z,97.20
2017-12-16T08:22:32.228Z,97.30
2017-12-16T08:24:59.787Z,97.30
2017-12-16T08:27:27.251Z,97.30
2017-12-16T08:29:54.743Z,97.50
2017-12-16T08:32:22.316Z,97.60
2017-12-16T08:34:49.765Z,97.20
2017-12-16T08:37:17.221Z,97.40
2017-12-16T08:39:44.689Z,97.30
2017-12-16T08:42:12.139Z,97.40
2017-12-16T08:44:39.610Z,97.60
2017-12-16T08:47:07.072Z,97.60
2017-12-16T08:49:34.631Z,97.70
2017-12-16T08:52:02.163Z,97.70
2017-12-16T08:54:29.655Z,97.80
2017-12-16T08:56:57.134Z,97.70
2017-12-16T08:59:24.601Z,97.70
2017-12-16T09:01:52.056Z,97.80
2017-12-16T09:04:19.530Z,98.10
2017-12-16T09:06:47.027Z,98.00
2017-12-16T09:09:14.489Z,97.70
2017-12-16T09:11:41.986Z,97.70
2017-12-16T09:14:09.482Z,97.50
2017-12-16T09:16:37.069Z,97.60
2017-12-16T09:19:04.556Z,97.50
2017-12-16T09:21:32.021Z,97.40
2017-12-16T09:23:59.498Z,97.40
2017-12-16T09:26:26.960Z,97.60
2017-12-16T09:28:54.433Z,97.50
2017-12-16T09:31:22.654Z,97.60
2017-12-16T09:33:50.171Z,97.50
2017-12-16T09:36:17.705Z,97.20
2017-12-16T09:38:46.845Z,97.30
2017-12-16T09:41:16.529Z,97.20
2017-12-16T09:43:44.489Z,97.00
2017-12-16T09:46:12.990Z,97.00
2017-12-16T09:48:40.538Z,97.10
2017-12-16T09:51:07.946Z,97.20
2017-12-16T09:53:35.500Z,97.50
2017-12-16T09:56:02.995Z,97.60
2017-12-16T09:58:30.533Z,97.60
2017-12-16T10:00:58.073Z,97.50
2017-12-16T10:03:25.554Z,97.50
2017-12-16T10:05:53.036Z,97.50
2017-12-16T10:08:20.545Z,97.40
2017-12-16T10:10:48.019Z,97.60
2017-12-16T10:13:15.514Z,97.40
2017-12-16T10:15:43.052Z,97.70
2017-12-16T10:18:10.498Z,97.50
2017-12-16T10:20:37.960Z,97.60
2017-12-16T10:23:05.470Z,97.30
2017-12-16T10:25:32.923Z,97.20
2017-12-16T10:28:00.374Z,97.50
2017-12-16T10:30:27.819Z,97.30
2017-12-16T10:32:56.062Z,97.50
2017-12-16T10:35:23.560Z,97.30
2017-12-16T10:37:59.368Z,97.60
2017-12-16T10:40:26.851Z,97.40
2017-12-16T10:42:54.586Z,97.30
2017-12-16T10:45:22.075Z,96.50
2017-12-16T10:47:49.535Z,96.20
2017-12-16T10:50:17.780Z,96.40
2017-12-16T10:52:45.267Z,96.40
2017-12-16T10:55:13.508Z,96.00
2017-12-16T10:57:41.002Z,96.00
2017-12-16T11:00:08.540Z,95.80
2017-12-16T11:02:36.037Z,95.90
2017-12-16T11:05:03.596Z,96.30
2017-12-16T11:07:31.046Z,95.90
2017-12-16T11:09:58.796Z,95.80
2017-12-16T11:12:26.300Z,95.80
2017-12-16T11:14:55.228Z,95.70
2017-12-16T11:17:22.718Z,95.70
2017-12-16T11:19:50.174Z,95.80
2017-12-16T11:22:18.418Z,95.80
2017-12-16T11:24:45.903Z,95.40
2017-12-16T11:27:13.407Z,95.40
2017-12-16T11:29:41.365Z,95.60
2017-12-16T11:32:08.797Z,95.80
2017-12-16T11:34:36.313Z,95.30
2017-12-16T11:37:04.838Z,95.20
2017-12-16T11:39:33.170Z,95.30
2017-12-16T11:42:01.222Z,95.40
2017-12-16T11:44:29.661Z,95.40
2017-12-16T11:46:57.222Z,95.60
2017-12-16T11:49:24.724Z,95.50
2017-12-16T11:51:52.393Z,95.50
2017-12-16T11:54:19.887Z,95.60
2017-12-16T11:59:45.523Z,95.70
2017-12-16T12:05:05.612Z,95.60
2017-12-16T12:07:33.233Z,95.50
2017-12-16T12:10:02.037Z,95.50
2017-12-16T12:12:29.742Z,95.40
2017-12-16T12:14:57.365Z,95.60
2017-12-16T12:17:24.904Z,95.30
2017-12-16T12:19:52.471Z,95.40
2017-12-16T12:22:19.962Z,95.50
2017-12-16T12:24:47.430Z,95.50
2017-12-16T12:27:16.086Z,95.30
2017-12-16T12:29:43.583Z,95.20
2017-12-16T12:32:11.114Z,95.20
2017-12-16T12:34:38.554Z,95.20
2017-12-16T12:37:06.022Z,95.10
2017-12-16T12:39:33.457Z,94.90
2017-12-16T12:42:00.903Z,95.00
2017-12-16T12:44:28.393Z,95.10
2017-12-16T12:46:55.935Z,95.00
2017-12-16T12:49:23.717Z,94.80
2017-12-16T12:51:51.183Z,94.80
2017-12-16T12:54:19.437Z,94.60
2017-12-16T12:56:46.919Z,94.60
2017-12-16T12:59:15.141Z,94.50
2017-12-16T13:01:42.618Z,94.50
2017-12-16T13:04:10.073Z,94.10
2017-12-16T13:06:37.538Z,94.20
2017-12-16T13:09:05.077Z,94.20
2017-12-16T13:11:32.526Z,93.80
2017-12-16T13:14:00.013Z,93.70
2017-12-16T13:16:27.450Z,94.00
2017-12-16T13:18:55.022Z,93.60
2017-12-16T13:21:22.736Z,93.50
2017-12-16T13:23:50.262Z,93.50
2017-12-16T13:26:17.718Z,93.50
2017-12-16T13:28:45.182Z,93.50
2017-12-16T13:31:12.664Z,93.80
2017-12-16T13:33:40.120Z,94.00
2017-12-16T13:36:07.578Z,94.00
2017-12-16T13:38:35.035Z,94.00
2017-12-16T13:41:02.496Z,93.80
2017-12-16T13:43:29.942Z,93.70
2017-12-16T13:45:57.377Z,93.50
2017-12-16T13:48:24.828Z,93.30
2017-12-16T13:50:52.287Z,93.40
2017-12-16T13:53:19.748Z,93.30
2017-12-16T13:55:47.213Z,93.60
2017-12-16T13:58:14.658Z,93.60
2017-12-16T14:00:42.882Z,95.10
2017-12-16T14:03:10.362Z,95.00
2017-12-16T14:05:37.861Z,95.10
2017-12-16T14:08:06.104Z,95.90
2017-12-16T14:10:33.693Z,95.80
2017-12-16T14:13:01.174Z,95.70
2017-12-16T14:15:28.610Z,96.00
2017-12-16T14:17:56.861Z,96.20
2017-12-16T14:20:24.493Z,96.20
2017-12-16T14:22:52.147Z,96.30
2017-12-16T14:25:19.665Z,96.30
2017-12-16T14:27:47.210Z,96.50
2017-12-16T14:30:14.887Z,96.70
2017-12-16T14:32:42.484Z,96.80
2017-12-16T14:35:09.996Z,96.80
2017-12-16T14:37:38.306Z,97.00
2017-12-16T14:40:05.892Z,96.90
2017-12-16T14:42:34.002Z,96.90
2017-12-16T14:45:02.330Z,97.10
2017-12-16T14:47:31.057Z,97.10
2017-12-16T14:49:58.614Z,97.20
2017-12-16T14:52:26.385Z,97.20
2017-12-16T14:54:53.866Z,97.20
2017-12-16T14:57:21.383Z,97.20
2017-12-16T14:59:48.875Z,97.20
2017-12-16T15:02:17.151Z,97.50
2017-12-16T15:04:44.620Z,97.50
2017-12-16T15:07:12.157Z,97.50
2017-12-16T15:09:39.657Z,97.50
2017-12-16T15:12:07.154Z,97.50
2017-12-16T15:14:34.628Z,97.30
2017-12-16T15:17:02.219Z,97.20
2017-12-16T15:19:29.752Z,97.10
2017-12-16T15:21:57.314Z,97.10
2017-12-16T15:24:24.784Z,97.20
2017-12-16T15:26:52.247Z,97.10
2017-12-16T15:29:19.742Z,97.20
2017-12-16T15:31:48.207Z,96.90
2017-12-16T15:34:15.847Z,96.80
2017-12-16T15:36:44.253Z,96.70
2017-12-16T15:39:11.736Z,96.80
2017-12-16T15:41:39.247Z,96.80
2017-12-16T15:44:06.754Z,96.80
2017-12-16T15:46:34.248Z,96.90
2017-12-16T15:49:01.705Z,96.80
2017-12-16T15:51:29.935Z,97.00
2017-12-16T15:53:57.414Z,97.00
2017-12-16T15:56:24.946Z,96.90
2017-12-16T15:58:52.444Z,96.90
2017-12-16T16:01:19.928Z,96.90
2017-12-16T16:03:47.398Z,96.90
2017-12-16T16:06:14.858Z,96.80
2017-12-16T16:08:42.386Z,96.90
2017-12-16T16:11:09.833Z,96.80
2017-12-16T16:13:37.300Z,97.20
2017-12-16T16:16:04.752Z,97.00
2017-12-16T16:18:32.191Z,97.00
2017-12-16T16:21:00.449Z,97.00
2017-12-16T16:23:27.930Z,96.90
2017-12-16T16:25:56.165Z,96.80
2017-12-16T16:28:23.646Z,96.80
2017-12-16T16:30:51.122Z,96.90
2017-12-16T16:33:19.395Z,97.10
2017-12-16T16:35:46.854Z,97.00
2017-12-16T16:38:15.075Z,97.10
2017-12-16T16:40:42.613Z,97.00
2017-12-16T16:43:10.091Z,97.20
2017-12-16T16:45:37.563Z,97.20
2017-12-16T16:48:05.056Z,97.30
2017-12-16T16:50:32.519Z,97.30
2017-12-16T16:53:00.006Z,97.40
2017-12-16T16:55:27.487Z,97.40
2017-12-16T16:57:55.198Z,97.50
2017-12-16T17:00:22.728Z,97.40
2017-12-16T17:02:51.051Z,97.50
2017-12-16T17:05:18.539Z,97.50
2017-12-16T17:07:46.039Z,97.50
2017-12-16T17:10:13.553Z,97.70
2017-12-16T17:12:41.031Z,97.70
2017-12-16T17:15:08.499Z,97.50
2017-12-16T17:17:36.049Z,97.70
2017-12-16T17:20:04.003Z,97.50
2017-12-16T17:22:31.508Z,97.50
2017-12-16T17:25:03.058Z,97.40
2017-12-16T17:27:30.612Z,97.40
2017-12-16T17:29:58.158Z,97.30
2017-12-16T17:32:28.435Z,97.30
2017-12-16T17:34:58.788Z,97.10
2017-12-16T17:37:28.730Z,97.10
2017-12-16T17:39:57.281Z,96.90
2017-12-16T17:42:26.268Z,96.90
2017-12-16T17:44:56.070Z,96.90
2017-12-16T17:47:24.522Z,96.90
2017-12-16T17:49:53.863Z,96.90
2017-12-16T17:52:32.627Z,96.90
2017-12-16T17:55:08.411Z,97.00
2017-12-16T17:57:40.029Z,96.90
2017-12-16T18:00:09.112Z,96.90
2017-12-16T18:02:38.411Z,96.90
2017-12-16T18:05:08.200Z,96.80
2017-12-16T18:07:36.745Z,96.70
2017-12-16T18:12:38.787Z,96.80
2017-12-16T18:15:06.554Z,96.90
2017-12-16T18:17:36.256Z,97.00
2017-12-16T18:20:03.737Z,96.90
2017-12-16T18:22:31.260Z,96.80
2017-12-16T18:24:58.741Z,96.90
2017-12-16T18:27:26.243Z,96.80
2017-12-16T18:29:53.772Z,96.70
2017-12-16T18:32:21.293Z,96.70
2017-12-16T18:34:48.869Z,96.70
2017-12-16T18:37:16.508Z,96.70
2017-12-16T18:39:44.076Z,96.70
2017-12-16T18:42:11.560Z,96.70
2017-12-16T18:44:39.188Z,96.80
2017-12-16T18:47:06.771Z,96.80
2017-12-16T18:49:34.275Z,96.80
2017-12-16T18:52:03.070Z,96.80
2017-12-16T18:54:30.583Z,96.80
2017-12-16T18:56:59.289Z,96.80
2017-12-16T18:59:27.589Z,96.70
2017-12-16T19:01:55.527Z,96.60
2017-12-16T19:04:23.076Z,96.50
2017-12-16T19:06:50.808Z,96.50
2017-12-16T19:09:18.590Z,96.30
2017-12-16T19:11:48.854Z,96.10
2017-12-16T19:14:17.074Z,96.10
2017-12-16T19:16:44.607Z,95.90
2017-12-16T19:19:16.914Z,95.80
2017-12-16T19:21:44.446Z,95.80
2017-12-16T19:24:11.923Z,95.90
2017-12-16T19:26:39.442Z,96.10
2017-12-16T19:29:06.925Z,96.20
2017-12-16T19:31:35.094Z,96.30
2017-12-16T19:34:04.161Z,96.40
2017-12-16T19:44:54.737Z,96.80
2017-12-16T19:47:30.033Z,97.00
2017-12-16T19:49:59.613Z,97.20
2017-12-16T23:01:22.426Z,97.30
2017-12-16T23:26:24.199Z,96.80
2017-12-16T23:28:53.328Z,96.70
2017-12-16T23:44:28.107Z,96.70
2017-12-16T23:47:00.397Z,97.20
2017-12-16T23:49:51.677Z,97.20
2017-12-16T23:52:22.375Z,97.20
2017-12-16T23:58:11.807Z,97.00
